Time;durP1;ratioP1;P1;durP2;ratioP2;P2;SDS_P1;SDS_P2;PMS_P1;PMS_P2;Temp;Humidity;BMP_temperature;BMP_pressure;BME280_temperature;BME280_humidity;BME280_pressure;Samples;Min_cycle;Max_cycle;Signal;HPM_P1;HPM_P2
2023/02/22 03:02:58;;;;;;;12.80;11.50;;;2.90;99.90;;;;;;5000166;28;20694;-79
2023/02/22 03:05:42;;;;;;;12.47;11.30;;;2.90;99.90;;;;;;5002278;28;20227;-79
2023/02/22 03:08:17;;;;;;;12.40;11.20;;;2.90;99.90;;;;;;5003881;28;20213;-78
2023/02/22 03:10:55;;;;;;;12.07;10.93;;;2.90;99.90;;;;;;5006808;28;20216;-78
2023/02/22 03:13:30;;;;;;;12.67;11.47;;;2.90;99.90;;;;;;5023639;28;20299;-79
2023/02/22 03:16:03;;;;;;;12.80;11.60;;;2.80;99.90;;;;;;5022100;28;20228;-79
2023/02/22 03:18:44;;;;;;;12.53;11.33;;;2.80;99.90;;;;;;5022526;28;20208;-78
2023/02/22 03:21:19;;;;;;;11.90;10.83;;;2.80;99.90;;;;;;5015158;28;20650;-78
2023/02/22 03:23:52;;;;;;;12.03;10.90;;;2.70;99.90;;;;;;5023091;28;20219;-78
2023/02/22 03:26:23;;;;;;;12.30;11.23;;;2.60;99.90;;;;;;5015368;28;20244;-78
2023/02/22 03:28:55;;;;;;;12.13;11.07;;;2.60;99.90;;;;;;5021223;28;20209;-78
2023/02/22 03:31:26;;;;;;;11.80;10.80;;;2.60;99.90;;;;;;5022182;28;20235;-78
2023/02/22 03:33:58;;;;;;;11.87;10.77;;;2.50;99.90;;;;;;5022041;28;20203;-78
2023/02/22 03:36:28;;;;;;;11.07;10.13;;;2.40;99.90;;;;;;5022412;28;20261;-78
2023/02/22 03:38:58;;;;;;;10.80;9.90;;;2.40;99.90;;;;;;5023290;28;20201;-78
2023/02/22 03:41:25;;;;;;;12.03;10.93;;;2.40;99.90;;;;;;5021809;28;20217;-82
2023/02/22 03:43:58;;;;;;;10.70;9.80;;;2.30;99.90;;;;;;5021539;28;20201;-79
2023/02/22 03:46:28;;;;;;;11.67;10.40;;;2.30;99.90;;;;;;5022071;28;20208;-79
2023/02/22 03:49:00;;;;;;;12.70;10.70;;;2.30;99.90;;;;;;5018154;28;20733;-78
2023/02/22 03:51:31;;;;;;;10.83;9.87;;;2.30;99.90;;;;;;5021826;28;20220;-78
2023/02/22 03:54:01;;;;;;;11.63;10.43;;;2.30;99.90;;;;;;5015786;28;20201;-82
2023/02/22 03:56:40;;;;;;;10.73;9.67;;;2.30;99.90;;;;;;5016955;28;20643;-81
2023/02/22 03:59:09;;;;;;;11.40;10.30;;;2.20;99.90;;;;;;5005807;28;20200;-80
2023/02/22 04:01:37;;;;;;;12.07;10.73;;;2.30;99.90;;;;;;5005383;28;20226;-80
2023/02/22 04:04:06;;;;;;;11.83;10.63;;;2.20;99.90;;;;;;5016696;28;20292;-80
2023/02/22 04:06:35;;;;;;;10.80;9.73;;;2.20;99.90;;;;;;5013249;28;20223;-80
2023/02/22 04:09:02;;;;;;;11.50;10.37;;;2.20;99.90;;;;;;5025838;28;20450;-80
2023/02/22 04:11:29;;;;;;;13.20;11.90;;;2.20;99.90;;;;;;5010025;28;20239;-80
2023/02/22 04:13:57;;;;;;;13.53;11.30;;;2.20;99.90;;;;;;5032943;28;20454;-81
2023/02/22 04:16:24;;;;;;;12.43;11.13;;;2.30;99.90;;;;;;5029264;28;20192;-80
2023/02/22 04:18:51;;;;;;;11.70;10.60;;;2.30;99.90;;;;;;5018094;28;20199;-81
2023/02/22 04:21:20;;;;;;;12.00;10.80;;;2.30;99.90;;;;;;5009907;28;20221;-80
2023/02/22 04:23:49;;;;;;;14.23;11.90;;;2.30;99.90;;;;;;5013390;28;20961;-81
2023/02/22 04:26:17;;;;;;;13.73;12.33;;;2.30;99.90;;;;;;5014301;28;20720;-81
2023/02/22 04:28:50;;;;;;;11.67;10.63;;;2.30;99.90;;;;;;5013916;28;20451;-81
2023/02/22 04:31:18;;;;;;;13.40;11.43;;;2.20;99.90;;;;;;5014694;28;20221;-82
2023/02/22 04:33:46;;;;;;;13.53;11.47;;;2.20;99.90;;;;;;5014773;28;20207;-82
2023/02/22 04:36:16;;;;;;;12.33;11.13;;;2.20;99.90;;;;;;5014255;28;20455;-81
2023/02/22 04:38:46;;;;;;;12.87;11.57;;;2.20;99.90;;;;;;5013819;28;20455;-81
2023/02/22 04:41:13;;;;;;;12.13;11.03;;;2.20;99.90;;;;;;5015965;28;20872;-81
2023/02/22 04:43:40;;;;;;;11.87;10.77;;;2.10;99.90;;;;;;5014079;28;20451;-81
2023/02/22 04:46:22;;;;;;;13.07;11.77;;;2.10;99.90;;;;;;5019555;28;20232;-82
2023/02/22 04:48:49;;;;;;;13.30;11.90;;;2.00;99.90;;;;;;5014102;28;20450;-85
2023/02/22 04:51:19;;;;;;;13.17;11.90;;;2.00;99.90;;;;;;5014234;28;20216;-81
2023/02/22 04:53:59;;;;;;;13.03;11.80;;;2.00;99.90;;;;;;5013941;28;20463;-81
2023/02/22 04:56:25;;;;;;;13.37;11.97;;;2.00;99.90;;;;;;5014882;28;20256;-82
2023/02/22 04:58:52;;;;;;;12.30;11.13;;;2.10;99.90;;;;;;5012689;28;20843;-81
2023/02/22 05:01:19;;;;;;;11.30;10.33;;;2.10;99.90;;;;;;5014803;28;20495;-81
2023/02/22 05:03:47;;;;;;;12.67;11.57;;;2.10;99.90;;;;;;5014365;28;21321;-81
2023/02/22 05:06:14;;;;;;;12.87;11.67;;;2.10;99.90;;;;;;5013894;28;20216;-81
2023/02/22 05:08:40;;;;;;;12.83;11.60;;;2.00;99.90;;;;;;5014237;28;20513;-81
2023/02/22 05:11:09;;;;;;;11.77;10.67;;;2.00;99.90;;;;;;5012015;28;20705;-81
2023/02/22 05:13:36;;;;;;;12.33;11.03;;;2.00;99.90;;;;;;5014090;28;20455;-81
2023/02/22 05:16:02;;;;;;;12.60;11.40;;;2.00;99.90;;;;;;5013166;28;20205;-82
2023/02/22 05:18:29;;;;;;;13.03;11.80;;;2.00;99.90;;;;;;5011241;28;20514;-79
2023/02/22 05:20:56;;;;;;;11.40;10.30;;;2.00;99.90;;;;;;5012540;28;20287;-82
2023/02/22 05:23:23;;;;;;;11.63;10.43;;;2.00;99.90;;;;;;5009950;28;20823;-79
2023/02/22 05:25:50;;;;;;;12.17;10.97;;;2.10;99.90;;;;;;5012347;28;20472;-80
2023/02/22 05:28:18;;;;;;;10.93;9.93;;;2.10;99.90;;;;;;5014533;28;20423;-81
2023/02/22 05:30:45;;;;;;;12.27;10.97;;;2.20;99.90;;;;;;5011904;28;20263;-81
2023/02/22 05:33:12;;;;;;;13.67;11.23;;;2.10;99.90;;;;;;5013889;28;20565;-81
2023/02/22 05:35:39;;;;;;;11.87;10.87;;;2.20;99.90;;;;;;5013727;28;20542;-80
2023/02/22 05:38:06;;;;;;;11.90;10.70;;;2.20;99.90;;;;;;5014550;28;20880;-82
2023/02/22 05:40:34;;;;;;;12.60;11.27;;;2.20;99.90;;;;;;5015294;28;20439;-81
2023/02/22 05:43:01;;;;;;;11.63;10.53;;;2.20;99.90;;;;;;5014006;28;20479;-82
2023/02/22 05:45:30;;;;;;;11.23;10.20;;;2.20;99.90;;;;;;5013659;28;20496;-81
2023/02/22 05:47:56;;;;;;;11.80;10.80;;;2.30;99.90;;;;;;5011866;28;20479;-82
2023/02/22 05:50:24;;;;;;;11.77;10.77;;;2.30;99.90;;;;;;5011861;28;20460;-80
2023/02/22 05:52:52;;;;;;;11.43;10.33;;;2.30;99.90;;;;;;5014880;28;20189;-79
2023/02/22 05:55:23;;;;;;;11.90;10.70;;;2.30;99.90;;;;;;5013106;28;20225;-81
2023/02/22 05:57:50;;;;;;;11.07;10.17;;;2.30;99.90;;;;;;5012984;28;20185;-82
2023/02/22 06:00:22;;;;;;;12.07;10.60;;;2.30;99.90;;;;;;5011856;28;20223;-82
2023/02/22 06:02:55;;;;;;;11.53;10.47;;;2.20;99.90;;;;;;5011970;28;20455;-81
2023/02/22 06:05:22;;;;;;;12.10;11.00;;;2.20;99.90;;;;;;5013391;28;20557;-79
2023/02/22 06:07:49;;;;;;;11.97;10.87;;;2.20;99.90;;;;;;5002747;28;20456;-81
2023/02/22 06:10:16;;;;;;;11.70;10.63;;;2.10;99.90;;;;;;4998845;28;20444;-81
2023/02/22 06:12:44;;;;;;;11.23;10.23;;;2.10;99.90;;;;;;5004354;28;20257;-81
2023/02/22 06:15:10;;;;;;;11.93;10.80;;;2.20;99.90;;;;;;5002869;28;20207;-81
2023/02/22 06:17:38;;;;;;;11.73;10.73;;;2.20;99.90;;;;;;5000988;28;20193;-81
2023/02/22 06:20:07;;;;;;;11.93;10.93;;;2.20;99.90;;;;;;5001710;28;20267;-81
2023/02/22 06:22:34;;;;;;;11.97;10.87;;;2.20;99.90;;;;;;5000153;28;20464;-81
2023/02/22 06:25:03;;;;;;;11.90;10.70;;;2.30;99.90;;;;;;5001431;28;20737;-81
2023/02/22 06:27:31;;;;;;;12.60;11.50;;;2.20;99.90;;;;;;5006738;28;20252;-81
2023/02/22 06:29:59;;;;;;;12.80;11.60;;;2.30;99.90;;;;;;4999206;28;20444;-81
2023/02/22 06:32:25;;;;;;;11.90;10.80;;;2.40;99.90;;;;;;5000820;28;20221;-80
2023/02/22 06:34:52;;;;;;;11.83;10.63;;;2.40;99.90;;;;;;4999906;28;20475;-81
2023/02/22 06:37:20;;;;;;;12.53;11.37;;;2.40;99.90;;;;;;5000704;28;20244;-81
2023/02/22 06:39:47;;;;;;;12.63;11.37;;;2.50;99.90;;;;;;5000444;28;20201;-81
2023/02/22 06:42:14;;;;;;;13.97;11.13;;;2.60;99.90;;;;;;5005129;28;20224;-79
2023/02/22 06:44:41;;;;;;;12.50;11.30;;;2.70;99.90;;;;;;5031749;28;20208;-85
2023/02/22 06:47:08;;;;;;;12.30;11.10;;;2.80;99.90;;;;;;5028104;28;20217;-84
2023/02/22 06:49:34;;;;;;;12.03;11.00;;;2.80;99.90;;;;;;5032432;28;20227;-86
2023/02/22 06:52:04;;;;;;;11.93;10.83;;;2.90;99.90;;;;;;5031183;28;20220;-85
2023/02/22 06:54:32;;;;;;;12.97;11.77;;;2.90;99.90;;;;;;5033048;28;20192;-85
2023/02/22 06:56:59;;;;;;;12.43;11.23;;;3.00;99.90;;;;;;5030778;28;20204;-87
2023/02/22 06:59:26;;;;;;;12.87;11.67;;;3.10;99.90;;;;;;5032429;28;20204;-85
2023/02/22 07:01:53;;;;;;;12.57;11.37;;;3.30;99.90;;;;;;5032799;28;20231;-86
2023/02/22 07:04:21;;;;;;;12.80;11.43;;;3.40;99.90;;;;;;5037101;28;20203;-86
2023/02/22 07:06:47;;;;;;;12.20;11.10;;;3.70;99.90;;;;;;5025315;28;20220;-85
2023/02/22 07:09:15;;;;;;;12.27;11.17;;;4.00;99.90;;;;;;5032791;28;20193;-86
2023/02/22 07:11:44;;;;;;;12.37;11.27;;;4.20;99.90;;;;;;5020660;28;20290;-82
2023/02/22 07:14:11;;;;;;;13.57;12.47;;;4.30;99.90;;;;;;5014409;28;20674;-82
2023/02/22 07:16:37;;;;;;;14.07;12.63;;;4.40;99.90;;;;;;5015543;28;20235;-87
2023/02/22 07:19:04;;;;;;;12.33;11.33;;;4.60;99.90;;;;;;5022410;28;20207;-86
2023/02/22 07:21:31;;;;;;;13.23;12.13;;;4.70;99.90;;;;;;5017291;28;20723;-80
2023/02/22 07:23:58;;;;;;;13.00;11.87;;;4.90;99.90;;;;;;5014295;28;20205;-79
2023/02/22 07:26:26;;;;;;;14.87;13.47;;;5.00;99.90;;;;;;5021165;28;20215;-79
2023/02/22 07:28:54;;;;;;;13.40;12.00;;;5.00;99.90;;;;;;5021633;28;20212;-80
2023/02/22 07:31:21;;;;;;;12.17;11.07;;;5.10;99.90;;;;;;5019330;28;20240;-79
2023/02/22 07:33:50;;;;;;;12.23;11.10;;;5.10;99.90;;;;;;5023929;28;20200;-80
2023/02/22 07:36:17;;;;;;;12.43;11.33;;;5.20;99.90;;;;;;5022303;28;20189;-80
2023/02/22 07:38:44;;;;;;;12.03;11.03;;;5.30;99.90;;;;;;5023142;28;20201;-79
2023/02/22 07:41:11;;;;;;;12.37;11.13;;;5.40;99.90;;;;;;5021492;28;20217;-79
2023/02/22 07:43:38;;;;;;;11.87;10.90;;;5.50;99.90;;;;;;5019701;28;20233;-79
2023/02/22 07:46:06;;;;;;;12.50;11.20;;;5.70;99.90;;;;;;5021663;28;20582;-80
2023/02/22 07:48:33;;;;;;;12.40;11.23;;;6.00;99.90;;;;;;5020613;28;20403;-80
2023/02/22 07:51:00;;;;;;;12.30;11.23;;;6.30;99.90;;;;;;5021277;28;20230;-79
2023/02/22 07:53:30;;;;;;;14.33;12.43;;;6.50;99.90;;;;;;5019717;28;20210;-80
2023/02/22 07:55:57;;;;;;;13.57;12.37;;;6.80;99.90;;;;;;5021175;28;20210;-79
2023/02/22 07:58:26;;;;;;;14.03;11.30;;;7.10;99.90;;;;;;5018683;28;20195;-80
2023/02/22 08:00:54;;;;;;;14.43;11.10;;;7.30;99.90;;;;;;5020140;28;20616;-80
2023/02/22 08:03:24;;;;;;;12.33;11.30;;;7.40;99.90;;;;;;5019132;28;20188;-80
2023/02/22 08:05:53;;;;;;;13.10;11.80;;;7.70;99.90;;;;;;5018633;28;20188;-80
2023/02/22 08:08:20;;;;;;;12.70;11.60;;;7.90;99.90;;;;;;5017761;28;20196;-80
2023/02/22 08:10:48;;;;;;;13.60;12.43;;;8.20;99.90;;;;;;5016791;28;20315;-81
2023/02/22 08:13:16;;;;;;;12.40;11.27;;;8.60;99.90;;;;;;5009287;28;20268;-80
2023/02/22 08:15:43;;;;;;;15.10;13.90;;;8.70;99.90;;;;;;5017027;28;20239;-80
2023/02/22 08:18:12;;;;;;;14.23;13.03;;;8.90;99.90;;;;;;5016285;28;20228;-80
2023/02/22 08:20:42;;;;;;;13.97;12.87;;;9.00;99.90;;;;;;5018363;28;20224;-80
2023/02/22 08:23:10;;;;;;;13.60;12.50;;;9.10;99.90;;;;;;5016488;28;20204;-80
2023/02/22 08:25:37;;;;;;;14.30;13.00;;;9.50;99.90;;;;;;5016130;28;20192;-80
2023/02/22 08:28:06;;;;;;;9.90;8.53;;;9.70;99.90;;;;;;5019004;28;20224;-80
2023/02/22 08:30:34;;;;;;;10.93;9.90;;;9.80;99.90;;;;;;5017465;28;20255;-80
2023/02/22 08:33:02;;;;;;;13.47;12.47;;;10.10;99.90;;;;;;5017465;28;20283;-80
2023/02/22 08:35:30;;;;;;;13.23;12.07;;;10.20;99.90;;;;;;5017916;28;20198;-81
2023/02/22 08:38:00;;;;;;;14.03;12.60;;;10.60;99.90;;;;;;5017640;28;20260;-80
2023/02/22 08:40:30;;;;;;;11.20;10.30;;;10.90;99.90;;;;;;5012716;28;20204;-81
2023/02/22 08:42:58;;;;;;;14.60;13.50;;;11.10;99.90;;;;;;5014214;28;20206;-80
2023/02/22 08:45:24;;;;;;;10.60;9.70;;;11.60;99.90;;;;;;5018466;28;20208;-80
2023/02/22 08:47:51;;;;;;;12.17;11.27;;;11.60;99.90;;;;;;5018308;28;20227;-81
2023/02/22 08:50:20;;;;;;;13.40;12.20;;;11.90;99.90;;;;;;5016629;28;20270;-81
2023/02/22 08:52:47;;;;;;;12.67;11.67;;;12.10;99.90;;;;;;5017955;28;20208;-81
2023/02/22 08:55:15;;;;;;;12.17;11.07;;;12.10;99.90;;;;;;5015902;28;20255;-81
2023/02/22 08:57:42;;;;;;;8.43;5.93;;;12.50;99.90;;;;;;5017764;28;20201;-81
2023/02/22 09:00:10;;;;;;;7.37;5.23;;;12.60;99.90;;;;;;5016298;28;20369;-81
2023/02/22 09:02:37;;;;;;;6.40;5.47;;;12.50;99.90;;;;;;5012855;28;20254;-83
2023/02/22 09:05:05;;;;;;;6.63;5.53;;;12.40;99.90;;;;;;5013932;28;20666;-82
2023/02/22 09:07:32;;;;;;;8.57;5.27;;;12.10;99.90;;;;;;5012532;28;20212;-83
2023/02/22 09:09:59;;;;;;;7.73;5.50;;;11.80;99.90;;;;;;5009891;28;20208;-82
2023/02/22 09:12:27;;;;;;;6.03;5.10;;;11.50;99.90;;;;;;5014321;28;20236;-84
2023/02/22 09:14:54;;;;;;;6.83;5.17;;;11.30;99.90;;;;;;5004229;28;20201;-80
2023/02/22 09:17:21;;;;;;;7.40;5.17;;;11.10;99.90;;;;;;5005343;28;20248;-80
2023/02/22 09:19:48;;;;;;;8.27;7.00;;;10.90;99.90;;;;;;5012973;28;20637;-82
2023/02/22 09:22:15;;;;;;;8.47;7.77;;;10.90;99.90;;;;;;5006800;28;20246;-79
2023/02/22 09:24:42;;;;;;;7.00;5.60;;;10.90;99.90;;;;;;5016036;28;20200;-78
2023/02/22 09:27:10;;;;;;;7.40;5.47;;;10.90;99.90;;;;;;5019773;28;20211;-82
2023/02/22 09:29:51;;;;;;;6.43;5.27;;;11.00;99.90;;;;;;5014681;28;20283;-81
2023/02/22 09:32:18;;;;;;;5.83;4.90;;;11.20;99.90;;;;;;5012475;28;20239;-81
2023/02/22 09:34:46;;;;;;;7.97;5.47;;;11.40;99.90;;;;;;5013619;28;20213;-81
2023/02/22 09:37:17;;;;;;;7.83;5.50;;;11.50;99.90;;;;;;5021727;28;21631;-82
2023/02/22 09:39:58;;;;;;;9.03;6.00;;;11.60;99.90;;;;;;5020117;28;20231;-81
2023/02/22 09:43:16;;;;;;;;;;;;;;;;;;;;;
2023/02/22 09:46:17;;;;;;;6.77;5.00;;;11.80;99.90;;;;;;5011108;28;20200;-81
2023/02/22 09:49:01;;;;;;;12.27;11.27;;;11.70;99.90;;;;;;5017228;28;20733;-83
2023/02/22 09:51:41;;;;;;;12.47;11.47;;;11.70;99.90;;;;;;5008355;28;20231;-84
2023/02/22 09:54:27;;;;;;;11.27;10.37;;;11.80;99.90;;;;;;5004820;28;20626;-81
2023/02/22 09:57:18;;;;;;;12.07;11.03;;;11.90;99.90;;;;;;5011566;28;20196;-81
2023/02/22 10:00:32;;;;;;;12.33;11.33;;;12.20;99.90;;;;;;5007588;28;20231;-83
2023/02/22 10:10:26;;;;;;;11.13;10.13;;;12.40;99.90;;;;;;5013032;28;20200;-82
2023/02/22 10:13:03;;;;;;;11.30;10.40;;;12.30;99.90;;;;;;5020691;28;20697;-83
2023/02/22 10:15:47;;;;;;;10.60;9.60;;;12.20;99.90;;;;;;5023094;28;20204;-85
2023/02/22 10:18:53;;;;;;;10.50;9.70;;;12.10;99.90;;;;;;5012332;28;20200;-85
2023/02/22 10:21:36;;;;;;;10.53;9.73;;;12.30;99.90;;;;;;5005033;28;20220;-85
2023/02/22 10:24:15;;;;;;;11.43;10.53;;;12.30;99.90;;;;;;5011097;28;20290;-80
2023/02/22 10:26:43;;;;;;;12.63;11.43;;;12.40;99.90;;;;;;4995817;28;20766;-81
2023/02/22 10:29:17;;;;;;;14.30;12.97;;;12.50;99.90;;;;;;4997639;28;20270;-80
2023/02/22 10:31:48;;;;;;;13.53;12.07;;;12.60;99.90;;;;;;5011811;28;20220;-81
2023/02/22 10:34:22;;;;;;;12.63;11.33;;;12.70;99.90;;;;;;5016600;28;20283;-80
2023/02/22 10:37:00;;;;;;;12.60;11.50;;;12.80;99.90;;;;;;5015296;28;20204;-80
2023/02/22 10:39:30;;;;;;;11.70;10.57;;;12.90;99.90;;;;;;5013287;28;20267;-81
2023/02/22 10:42:04;;;;;;;8.77;5.80;;;13.00;99.90;;;;;;5012846;28;20224;-82
2023/02/22 10:44:32;;;;;;;8.73;6.23;;;13.20;99.90;;;;;;5013563;28;20437;-81
2023/02/22 10:47:00;;;;;;;8.03;6.00;;;13.10;99.90;;;;;;5013774;28;20283;-81
2023/02/22 10:49:34;;;;;;;7.93;6.00;;;13.10;99.90;;;;;;5014962;28;20656;-81
2023/02/22 10:52:03;;;;;;;8.00;5.80;;;13.10;99.90;;;;;;5013019;28;20224;-81
2023/02/22 10:54:33;;;;;;;9.23;7.37;;;13.20;99.90;;;;;;5013882;28;20718;-81
2023/02/22 10:57:02;;;;;;;9.37;8.47;;;13.20;99.90;;;;;;5015115;28;20192;-81
2023/02/22 10:59:32;;;;;;;11.47;10.33;;;13.20;99.90;;;;;;5019091;28;20227;-81
2023/02/22 11:02:00;;;;;;;7.70;5.93;;;13.40;99.90;;;;;;5017314;28;20627;-81
2023/02/22 11:04:45;;;;;;;9.00;6.03;;;13.50;99.90;;;;;;5017581;28;20196;-81
2023/02/22 11:07:21;;;;;;;7.67;6.63;;;13.60;99.90;;;;;;5016750;28;20217;-81
2023/02/22 11:09:50;;;;;;;6.30;5.70;;;13.70;99.90;;;;;;5018706;28;20224;-81
2023/02/22 11:12:20;;;;;;;7.67;6.87;;;13.90;99.90;;;;;;5015072;28;20225;-80
2023/02/22 11:14:47;;;;;;;6.30;5.40;;;14.10;99.90;;;;;;5014445;28;20198;-81
2023/02/22 11:17:22;;;;;;;4.87;4.37;;;14.20;99.90;;;;;;5000951;28;20184;-81
2023/02/22 11:19:51;;;;;;;8.50;7.67;;;14.40;99.90;;;;;;5018193;28;20254;-81
2023/02/22 11:22:24;;;;;;;10.73;9.83;;;14.60;99.90;;;;;;5007541;28;20223;-81
2023/02/22 11:24:56;;;;;;;8.70;7.93;;;14.60;99.90;;;;;;5019274;28;20216;-81
2023/02/22 11:27:32;;;;;;;10.27;9.47;;;14.60;99.90;;;;;;5019098;28;20284;-81
2023/02/22 11:30:12;;;;;;;11.10;10.10;;;14.50;99.90;;;;;;5023876;28;20573;-81
2023/02/22 11:32:45;;;;;;;10.70;9.80;;;14.50;99.90;;;;;;5027465;28;20250;-81
2023/02/22 11:35:34;;;;;;;10.13;9.40;;;14.60;99.90;;;;;;5022334;28;20721;-81
2023/02/22 11:38:19;;;;;;;10.53;9.53;;;14.80;99.90;;;;;;5016942;28;20569;-81
2023/02/22 11:41:03;;;;;;;10.30;9.30;;;14.80;99.90;;;;;;5022306;28;20225;-81
2023/02/22 11:43:30;;;;;;;9.73;8.83;;;14.80;99.90;;;;;;5010003;28;20196;-82
2023/02/22 11:46:01;;;;;;;10.00;9.20;;;14.70;99.90;;;;;;5015990;28;20214;-82
2023/02/22 11:48:31;;;;;;;11.00;10.10;;;14.70;99.90;;;;;;5020762;28;20223;-82
2023/02/22 11:51:17;;;;;;;11.33;10.20;;;14.60;99.90;;;;;;5012321;28;20230;-82
2023/02/22 11:54:07;;;;;;;11.70;10.60;;;14.40;99.90;;;;;;5012500;28;20583;-81
2023/02/22 11:56:39;;;;;;;10.70;8.40;;;14.40;99.90;;;;;;5015204;28;20214;-82
2023/02/22 11:59:23;;;;;;;9.13;6.53;;;14.50;99.90;;;;;;5012719;28;20628;-82
2023/02/22 12:01:55;;;;;;;7.17;5.50;;;14.40;99.90;;;;;;5014290;28;20229;-81
2023/02/22 12:08:20;;;;;;;11.23;6.90;;;14.60;99.90;;;;;;5013393;28;20312;-82
2023/02/22 12:11:05;;;;;;;7.87;6.17;;;14.60;99.90;;;;;;5013689;28;20220;-82
2023/02/22 12:13:47;;;;;;;10.97;9.07;;;14.40;99.90;;;;;;5007906;28;20576;-82
2023/02/22 12:16:22;;;;;;;8.73;7.00;;;14.50;99.90;;;;;;5013215;28;20227;-82
2023/02/22 12:19:04;;;;;;;9.23;6.83;;;14.60;99.90;;;;;;5014754;28;20214;-82
2023/02/22 12:21:34;;;;;;;11.20;10.10;;;14.60;99.90;;;;;;5011920;28;20310;-80
2023/02/22 12:24:07;;;;;;;11.33;10.23;;;14.60;99.90;;;;;;5017429;28;20212;-82
2023/02/22 12:26:37;;;;;;;10.63;9.73;;;14.80;99.90;;;;;;5012988;28;20295;-82
2023/02/22 12:29:12;;;;;;;12.33;11.07;;;14.80;99.90;;;;;;5013133;28;20631;-82
2023/02/22 12:31:44;;;;;;;12.23;11.07;;;14.90;99.90;;;;;;5012896;28;20288;-81
2023/02/22 12:34:25;;;;;;;11.27;10.30;;;14.80;99.90;;;;;;5012983;28;20677;-81
2023/02/22 12:37:00;;;;;;;12.67;11.57;;;15.00;99.90;;;;;;5014080;28;20195;-81
2023/02/22 12:39:42;;;;;;;12.40;11.07;;;15.00;99.90;;;;;;5018389;28;20194;-81
2023/02/22 12:42:16;;;;;;;11.33;10.33;;;15.00;99.90;;;;;;5013859;28;20236;-82
2023/02/22 12:44:48;;;;;;;12.00;11.00;;;15.10;99.90;;;;;;5013577;28;20263;-80
2023/02/22 12:47:21;;;;;;;12.00;10.90;;;15.10;99.90;;;;;;5014183;28;20199;-81
2023/02/22 12:49:52;;;;;;;12.27;11.20;;;15.10;99.90;;;;;;5012990;28;20470;-81
2023/02/22 12:52:34;;;;;;;11.17;10.07;;;15.10;99.90;;;;;;5013378;28;20220;-81
2023/02/22 12:55:09;;;;;;;11.13;10.13;;;15.20;99.90;;;;;;5018777;28;20645;-81
2023/02/22 12:57:43;;;;;;;11.93;10.73;;;15.20;99.90;;;;;;5014140;28;20277;-81
2023/02/22 13:00:19;;;;;;;11.73;10.70;;;15.20;99.90;;;;;;5012283;28;20208;-82
2023/02/22 13:02:55;;;;;;;12.47;11.37;;;15.20;99.90;;;;;;5012236;28;20337;-81
2023/02/22 13:05:22;;;;;;;12.17;11.13;;;15.20;99.90;;;;;;5012181;28;20210;-81
2023/02/22 13:07:58;;;;;;;12.17;11.17;;;15.20;99.90;;;;;;5013433;28;20249;-81
2023/02/22 13:10:44;;;;;;;12.27;11.00;;;15.10;99.90;;;;;;5013004;28;20256;-81
2023/02/22 13:13:20;;;;;;;12.50;11.23;;;15.00;99.90;;;;;;5014251;28;20204;-81
2023/02/22 13:15:56;;;;;;;11.90;10.80;;;14.90;99.90;;;;;;5012087;28;20227;-81
2023/02/22 13:18:29;;;;;;;12.67;11.40;;;14.90;99.90;;;;;;5011362;28;20254;-81
2023/02/22 13:21:02;;;;;;;12.63;11.50;;;14.80;99.90;;;;;;5012176;28;20715;-81
2023/02/22 13:23:39;;;;;;;13.07;11.87;;;14.80;99.90;;;;;;5014392;28;20195;-80
2023/02/22 13:26:15;;;;;;;12.40;11.30;;;14.70;99.90;;;;;;5012957;28;20209;-81
2023/02/22 13:28:45;;;;;;;12.77;11.47;;;14.70;99.90;;;;;;5012318;28;20221;-81
2023/02/22 13:31:27;;;;;;;12.10;10.90;;;14.60;99.90;;;;;;5012350;28;20226;-81
2023/02/22 13:34:16;;;;;;;11.73;10.73;;;14.60;99.90;;;;;;5016990;28;20284;-80
2023/02/22 13:37:02;;;;;;;11.93;10.83;;;14.60;99.90;;;;;;5013717;28;20663;-81
2023/02/22 13:39:59;;;;;;;12.20;11.20;;;14.60;99.90;;;;;;5014415;28;20191;-80
2023/02/22 13:42:52;;;;;;;12.57;11.50;;;14.50;99.90;;;;;;5006623;28;20237;-81
2023/02/22 13:46:01;;;;;;;11.70;10.60;;;14.40;99.90;;;;;;5009695;28;20212;-82
2023/02/22 13:48:44;;;;;;;11.60;10.60;;;14.30;99.90;;;;;;5015039;28;20213;-81
2023/02/22 13:51:19;;;;;;;12.10;11.00;;;14.30;99.90;;;;;;5014420;28;20251;-82
2023/02/22 13:53:54;;;;;;;11.50;10.60;;;14.20;99.90;;;;;;5014693;28;20273;-79
2023/02/22 13:56:22;;;;;;;11.90;10.80;;;14.20;99.90;;;;;;5011895;28;20201;-79
2023/02/22 13:58:53;;;;;;;11.80;10.80;;;14.30;99.90;;;;;;5002592;28;20189;-79
2023/02/22 14:01:42;;;;;;;11.93;10.90;;;14.30;99.90;;;;;;5020639;28;20220;-80
2023/02/22 14:04:45;;;;;;;11.80;10.70;;;14.40;99.90;;;;;;5013967;28;20209;-80
2023/02/22 14:07:45;;;;;;;11.70;10.67;;;14.40;99.90;;;;;;5011271;28;20245;-80
2023/02/22 14:10:38;;;;;;;12.03;10.97;;;14.50;99.90;;;;;;5012209;28;20690;-80
2023/02/22 14:13:06;;;;;;;12.10;10.90;;;14.60;99.90;;;;;;5012629;28;20207;-81
2023/02/22 14:15:34;;;;;;;11.93;10.83;;;14.60;99.90;;;;;;5012503;28;20282;-80
2023/02/22 14:18:03;;;;;;;12.67;11.57;;;14.70;99.90;;;;;;5012780;28;20206;-80
2023/02/22 14:20:33;;;;;;;12.90;11.67;;;14.70;99.90;;;;;;5015001;28;20199;-80
2023/02/22 14:23:28;;;;;;;12.43;11.33;;;14.70;99.90;;;;;;5013695;28;20669;-80
2023/02/22 14:25:57;;;;;;;13.37;10.90;;;14.80;99.90;;;;;;5013092;28;20282;-80
2023/02/22 14:28:38;;;;;;;12.95;11.75;;;14.80;99.90;;;;;;5018054;28;20487;-80
2023/02/22 14:31:11;;;;;;;11.40;10.30;;;14.90;99.90;;;;;;5014592;28;20221;-80
2023/02/22 14:34:07;;;;;;;12.23;11.10;;;15.00;99.90;;;;;;5018251;28;20651;-79
2023/02/22 14:36:40;;;;;;;12.30;11.10;;;15.00;99.90;;;;;;5017147;28;20206;-80
2023/02/22 14:39:14;;;;;;;11.50;10.50;;;15.00;99.90;;;;;;5017486;28;20702;-80
2023/02/22 14:41:46;;;;;;;12.53;11.30;;;15.00;99.90;;;;;;5016655;28;20794;-82
2023/02/22 14:44:15;;;;;;;13.37;11.47;;;15.00;99.90;;;;;;5017441;28;20208;-82
2023/02/22 14:46:48;;;;;;;12.90;11.60;;;14.90;99.90;;;;;;5015819;28;20220;-83
2023/02/22 14:49:20;;;;;;;14.07;12.60;;;14.90;99.90;;;;;;5015684;28;20318;-82
2023/02/22 14:51:53;;;;;;;12.93;11.83;;;14.80;99.90;;;;;;5013241;28;20221;-82
2023/02/22 14:54:28;;;;;;;12.53;11.50;;;14.70;99.90;;;;;;5012415;28;20266;-83
2023/02/22 14:57:10;;;;;;;14.20;12.70;;;14.70;99.90;;;;;;5014159;28;20204;-81
2023/02/22 15:00:10;;;;;;;14.37;12.77;;;14.60;99.90;;;;;;5016189;28;20210;-82
2023/02/22 15:02:41;;;;;;;12.77;11.57;;;14.60;99.90;;;;;;5016890;28;20228;-83
2023/02/22 15:05:14;;;;;;;14.20;12.73;;;14.60;99.90;;;;;;5018582;28;20618;-83
2023/02/22 15:07:51;;;;;;;13.20;12.10;;;14.50;99.90;;;;;;5017247;28;20289;-82
2023/02/22 15:10:23;;;;;;;13.17;12.00;;;14.40;99.90;;;;;;5017777;28;20230;-82
2023/02/22 15:13:07;;;;;;;14.33;12.83;;;14.40;99.90;;;;;;5018013;28;20254;-82
2023/02/22 15:15:36;;;;;;;13.77;12.57;;;14.40;99.90;;;;;;5018976;28;20274;-83
2023/02/22 15:18:07;;;;;;;14.00;12.60;;;14.30;99.90;;;;;;5024499;28;20218;-84
2023/02/22 15:20:37;;;;;;;13.43;12.23;;;14.30;99.90;;;;;;5021915;28;20623;-78
2023/02/22 15:23:04;;;;;;;15.07;13.67;;;14.20;99.90;;;;;;5022358;28;20203;-82
2023/02/22 15:25:31;;;;;;;15.17;13.77;;;14.10;99.90;;;;;;5017229;28;20570;-83
2023/02/22 15:28:03;;;;;;;15.23;13.67;;;14.00;99.90;;;;;;5016563;28;20314;-81
2023/02/22 15:30:33;;;;;;;16.47;14.97;;;14.00;99.90;;;;;;5011077;28;20283;-82
2023/02/22 15:33:15;;;;;;;15.60;14.10;;;13.90;99.90;;;;;;5026179;28;20257;-81
2023/02/22 15:35:42;;;;;;;14.87;13.47;;;13.80;99.90;;;;;;5017347;28;20247;-81
2023/02/22 15:38:20;;;;;;;14.57;13.00;;;13.80;99.90;;;;;;5022313;28;20289;-81
2023/02/22 15:40:58;;;;;;;14.80;13.50;;;13.70;99.90;;;;;;5019142;28;20216;-81
2023/02/22 15:43:27;;;;;;;14.27;13.03;;;13.70;99.90;;;;;;5024466;28;20256;-80
2023/02/22 15:45:54;;;;;;;14.97;13.47;;;13.60;99.90;;;;;;5019980;28;20618;-81
2023/02/22 15:48:25;;;;;;;16.87;15.07;;;13.60;99.90;;;;;;5022794;28;20202;-81
2023/02/22 15:51:05;;;;;;;15.80;14.20;;;13.50;99.90;;;;;;5020119;28;20230;-82
2023/02/22 15:53:41;;;;;;;15.30;13.80;;;13.50;99.90;;;;;;5017072;28;20215;-81
2023/02/22 15:56:13;;;;;;;15.47;14.07;;;13.40;99.90;;;;;;5015414;28;20201;-81
2023/02/22 15:58:41;;;;;;;14.43;13.13;;;13.40;99.90;;;;;;5015502;28;20209;-84
2023/02/22 16:01:11;;;;;;;14.77;13.43;;;13.30;99.90;;;;;;5025591;28;20228;-84
2023/02/22 16:03:45;;;;;;;15.87;14.40;;;13.30;99.90;;;;;;5019248;28;20575;-84
2023/02/22 16:06:14;;;;;;;15.03;13.53;;;13.20;99.90;;;;;;5015943;28;20224;-83
2023/02/22 16:08:47;;;;;;;15.03;13.73;;;13.10;99.90;;;;;;5021228;28;20220;-85
2023/02/22 16:11:20;;;;;;;14.50;13.00;;;13.10;99.90;;;;;;5023243;28;20224;-85
2023/02/22 16:13:53;;;;;;;14.87;13.20;;;13.00;99.90;;;;;;5023643;28;20626;-85
2023/02/22 16:16:24;;;;;;;13.70;12.40;;;12.90;99.90;;;;;;5023788;28;20200;-85